Weather observations for the past three days for
Seward
Metric (Imperial)
Date Time (akdt) Wind (kph) Vis. (km) Weather Sky Cond. Temperature (ºC) Relative Humidity Wind Chill (°C) Heat Index (°C) Pressure Precipitation (cm)
Air Dwpt 6 hour altimeter (cm) sea level (mb) 1 hr 3 hr 6 hr
Max. Min.
01 10:53 N 22 G 35 16.09 Fair CLR 12.8 3.3 53% 75.41 1005.5
01 09:53 NE 24 G 41 16.09 Fair CLR 11.1 2.8 11.1 8.3 57% 75.44 1005.6
01 08:53 NE 24 G 43 16.09 Fair CLR 8.9 2.8 66% 6 75.44 1005.8
01 07:53 N 22 G 37 16.09 Fair CLR 8.3 1.7 63% 5 75.44 1005.8
01 06:53 N 19 G 50 16.09 Fair CLR 9.4 1.7 59% 7 75.44 1005.6
01 05:53 N 31 G 52 16.09 Fair CLR 9.4 1.7 59% 6 75.41 1005.4
01 04:53 N 26 G 46 16.09 Fair CLR 10 1.1 54% 7 75.39 1005.0
01 03:53 N 28 G 44 16.09 Fair CLR 10 1.1 12.8 10 54% 7 75.36 1004.6
01 02:53 N 28 G 46 16.09 Fair CLR 10.6 1.1 52% 75.31 1004.1
01 01:53 N 20 G 31 16.09 Fair CLR 10.6 0.6 50% 75.31 1004.1
01 00:53 N 15 G 35 16.09 Fair CLR 10.6 1.1 52% 75.26 1003.5
31 23:53 N 15 G 30 16.09 Fair CLR 11.1 1.1 50% 75.26 1003.2
31 22:53 N 22 G 39 16.09 Fair CLR 12.2 0.6 45% 75.18 1002.2
31 21:53 NW 37 G 59 16.09 Fair and Breezy CLR 12.8 0.6 13.3 11.7 44% 75.13 1001.8
31 20:53 NW 41 G 70 16.09 A Few Clouds and Breezy FEW070 13.3 1.1 44% 75.06 1000.7
31 19:53 NW 44 G 70 16.09 Overcast and Windy OVC070 13.3 0.6 42% 75.03 1000.2
31 18:53 NW 46 G 72 16.09 Partly Cloudy and Windy SCT065 12.8 1.1 45% 74.93 999.0
31 17:53 NW 39 G 69 16.09 Mostly Cloudy and Breezy BKN060 12.8 2.2 49% 74.93 998.9
31 16:53 NW 43 G 74 16.09 Mostly Cloudy and Windy BKN055 12.8 1.7 47% 74.93 999.0
31 15:53 NW 41 G 74 16.09 A Few Clouds and Breezy FEW055 11.7 1.7 11.7 10 51% 74.9 998.7
31 14:53 NW 35 G 69 16.09 Mostly Cloudy and Breezy BKN055 11.7 1.7 51% 74.9 998.5
31 13:53 NW 44 G 80 16.09 Mostly Cloudy and Windy BKN060 10.6 1.1 52% 74.85 998.0
31 12:53 NW 33 G 70 16.09 Mostly Cloudy and Breezy BKN065 10.6 0 48% 74.85 998.0
31 11:53 NW 43 G 67 16.09 Overcast and Windy SCT070 OVC110 10.6 -1.7 43% 74.88 998.1
31 10:53 NW 31 G 59 16.09 Mostly Cloudy BKN070 11.1 -1.7 41% 74.88 998.4
31 09:53 N 30 G 46 16.09 Mostly Cloudy SCT044 BKN055 BKN070 10.6 2.2 10.6 6.1 56% 74.93 999.0 0.1
31 08:53 N 24 G 44 16.09 Fair CLR 8.9 2.8 66% 6 74.93 999.1
31 07:53 NE 13 12.87 Light Rain BKN044 BKN055 OVC070 7.2 5.6 90% 5 75.01 1000.0 0.1
31 06:53 N 6 16.09 A Few Clouds FEW046 FEW070 6.7 4.4 85% 74.98 999.6
31 05:53 NW 9 16.09 A Few Clouds FEW065 6.1 4.4 89% 4 75.06 1000.5
31 04:53 N 7 16.09 Partly Cloudy SCT065 6.7 5 89% 6 75.11 1001.3
31 03:53 N 13 16.09 Fair CLR 8.3 5 15 8.3 80% 6 75.16 1002.0
31 02:53 N 15 16.09 Fair CLR 9.4 5.6 77% 7 75.21 1002.6
31 01:53 N 13 16.09 Fair CLR 10 5.6 74% 8 75.23 1003.0
31 00:53 N 11 16.09 Fair CLR 10.6 6.1 74% 75.29 1003.8
30 23:53 N 13 16.09 Fair CLR 12.2 6.1 67% 75.36 1004.5
30 22:53 N 15 16.09 Fair CLR 13.3 5.6 60% 75.39 1004.9
30 21:53 NE 15 16.09 Partly Cloudy SCT110 13.9 5 18.9 13.9 55% 75.39 1005.1
30 20:53 N 17 G 31 16.09 Mostly Cloudy BKN110 14.4 5 53% 75.44 1005.7
30 19:53 NE 13 16.09 Overcast OVC110 15 5 51% 75.46 1006.1
30 18:53 N 22 G 31 16.09 Mostly Cloudy BKN120 16.1 2.8 41% 75.54 1006.9
30 17:53 NW 22 G 39 16.09 Fair CLR 17.2 2.2 37% 75.59 1007.7
30 16:53 NW 26 G 41 16.09 Fair CLR 17.8 2.2 35% 75.64 1008.4
30 15:53 NW 15 G 33 16.09 Fair CLR 18.9 2.8 18.9 15 34% 75.67 1008.7
30 14:53 NW 15 G 31 16.09 Fair CLR 18.3 2.2 34% 75.72 1009.3
30 13:53 N 17 G 33 16.09 Fair CLR 18.3 1.7 33% 75.74 1009.9
30 12:53 N 20 G 39 16.09 Fair CLR 18.9 3.3 36% 75.79 1010.4
30 11:53 N 22 G 39 16.09 Fair CLR 17.8 3.9 40% 75.84 1011.1
30 10:53 N 22 16.09 Fair CLR 16.1 3.9 44% 75.87 1011.6
30 09:53 N 26 G 44 16.09 Fair CLR 15 2.8 15 12.2 44% 75.9 1011.8
30 08:53 NE 26 G 43 16.09 Fair CLR 13.3 2.8 49% 75.9 1011.9
30 07:53 N 26 G 48 16.09 Fair CLR 12.8 2.2 49% 75.9 1011.9
30 06:53 NE 24 G 41 16.09 Fair CLR 12.8 2.2 49% 75.84 1011.2
30 05:53 N 24 G 39 16.09 Fair CLR 12.8 2.2 49% 75.84 1011.1
30 04:53 N 15 G 35 16.09 Fair CLR 12.2 3.3 55% 75.87 1011.3
30 03:53 N 24 16.09 Fair CLR 12.8 4.4 16.1 12.2 57% 75.79 1010.6
30 02:53 N 22 G 37 16.09 Fair CLR 13.3 5 57% 75.77 1010.3
30 01:53 N 19 G 50 16.09 Fair CLR 13.9 5.6 58% 75.77 1010.0
30 00:53 NE 26 G 41 16.09 Fair CLR 13.9 6.1 60% 75.74 1009.7
29 23:53 N 20 G 33 16.09 Fair CLR 14.4 6.1 58% 75.69 1009.2
29 22:53 N 20 16.09 Fair CLR 14.4 6.1 58% 75.67 1008.8
29 21:53 N 17 G 41 16.09 Fair CLR 15.6 5.6 19.4 15.6 52% 75.62 1008.1
29 20:53 NW 30 G 59 16.09 Fair CLR 16.7 4.4 44% 75.57 1007.5
29 19:53 NW 31 G 61 16.09 Fair CLR 17.2 3.9 41% 75.51 1006.9
29 18:53 NW 33 G 57 16.09 Fair and Breezy CLR 18.3 3.3 37% 75.49 1006.3
29 17:53 NW 31 G 59 16.09 Fair CLR 18.9 3.3 36% 75.46 1006.1
29 16:53 NW 30 G 54 16.09 Fair CLR 19.4 2.8 33% 75.46 1005.9
29 15:53 NW 28 G 50 16.09 Fair CLR 19.4 5 19.4 13.9 39% 75.44 1005.7
29 14:53 NW 31 G 50 16.09 Fair CLR 19.4 6.1 42% 75.44 1005.7
29 13:53 NW 15 G 35 16.09 Fair CLR 19.4 6.7 44% 75.44 1005.7
29 12:53 N 19 G 37 16.09 Fair CLR 18.3 8.9 54% 75.46 1005.9
29 11:53 N 19 G 35 16.09 Fair CLR 17.2 10 63% 75.46 1006.0
Date Time (akdt) Wind (kph) Vis. (km) Weather Sky Cond. Air Dwpt Max. Min. Relative Humidity Wind Chill (°C) Heat Index (°C) altimeter (cm) sea level (mb) 1 hr 3 hr 6 hr
6 hour
Temperature (ºC) Pressure Precipitation (cm)